This is the latest recevied weather packets stored in our database for station/object KY4LEX. If no packets are shown the sender has not sent any weather packets the latest 10 day(s).
| Time | Temp. | Humidity | Pressure | Rain* | Wind** | Luminosity | Snow |
|---|---|---|---|---|---|---|---|
| 1777600882 | 9.44° C | 76% | 1021.3 hPa | 0 mm | - | 0 W/m² | - |
| 1777600577 | 9.44° C | 76% | 1021 hPa | 0 mm | - | 0 W/m² | - |
| 1777600273 | 9.44° C | 76% | 1021.1 hPa | 0 mm | - | 0 W/m² | - |
| 1777599968 | 9.44° C | 75% | 1020.9 hPa | 0 mm | - | 0 W/m² | - |
| 1777599665 | 9.44° C | 74% | 1021 hPa | 0 mm | - | 0 W/m² | - |
| 1777599362 | 10° C | 73% | 1020.9 hPa | 0 mm | - | 0 W/m² | - |
| 1777599059 | 10° C | 71% | 1020.8 hPa | 0 mm | - | 0 W/m² | - |
| 1777598756 | 10° C | 70% | 1020.9 hPa | 0 mm | - | 0 W/m² | - |
| 1777598452 | 10° C | 68% | 1020.7 hPa | 0 mm | - | 0 W/m² | - |
| 1777598150 | 10.56° C | 68% | 1020.7 hPa | 0 mm | - | 0 W/m² | - |
| 1777597845 | 10.56° C | 66% | 1020.6 hPa | 0 mm | - | 0 W/m² | - |
| 1777597545 | 10.56° C | 65% | 1020.9 hPa | 0 mm | - | 0 W/m² | - |
| 1777597241 | 11.11° C | 62% | 1020.7 hPa | 0 mm | - | 0 W/m² | - |
| 1777596936 | 11.11° C | 62% | 1020.7 hPa | 0 mm | - | 0 W/m² | - |
| 1777596633 | 11.67° C | 59% | 1020.5 hPa | 0 mm | - | 0 W/m² | - |
| 1777596330 | 11.67° C | 57% | 1020.5 hPa | 0 mm | - | 0 W/m² | - |
| 1777596028 | 12.22° C | 56% | 1020.2 hPa | 0 mm | - | 0 W/m² | - |
| 1777595727 | 12.22° C | 56% | 1020.5 hPa | 0 mm | - | 1 W/m² | - |
| 1777595423 | 12.78° C | 52% | 1020.3 hPa | 0 mm | - | 2 W/m² | - |
| 1777595120 | 12.78° C | 52% | 1020.3 hPa | 0 mm | - | 3 W/m² | - |
| 1777594816 | 13.33° C | 50% | 1020.2 hPa | 0 mm | - | 5 W/m² | - |
| 1777594512 | 13.33° C | 49% | 1020.1 hPa | 0 mm | - | 8 W/m² | - |
| 1777594209 | 13.33° C | 48% | 1020.2 hPa | 0 mm | - | 10 W/m² | - |
| 1777593904 | 13.33° C | 46% | 1020.2 hPa | 0 mm | - | 13 W/m² | - |
| 1777593601 | 13.89° C | 49% | 1020.4 hPa | 0 mm | - | 15 W/m² | - |
* Rain latest hour (hover to see other rain measurements)
** Current wind speed in m/s (hover to see current wind gust speed)